createdAt,value
2017-11-26T00:01:49.343Z,5.20
2017-11-26T00:04:17.904Z,5.12
2017-11-26T00:06:45.652Z,5.65
2017-11-26T00:09:13.391Z,5.00
2017-11-26T00:11:41.951Z,7.93
2017-11-26T00:14:09.696Z,3.40
2017-11-26T00:16:37.440Z,5.53
2017-11-26T00:19:05.233Z,6.40
2017-11-26T00:21:32.976Z,5.07
2017-11-26T00:24:00.718Z,5.65
2017-11-26T00:26:28.707Z,6.00
2017-11-26T00:28:56.449Z,6.47
2017-11-26T00:31:24.195Z,6.25
2017-11-26T00:33:51.990Z,8.85
2017-11-26T00:36:19.768Z,6.57
2017-11-26T00:38:47.512Z,6.45
2017-11-26T00:41:15.304Z,5.90
2017-11-26T00:43:43.111Z,7.43
2017-11-26T00:46:10.866Z,7.28
2017-11-26T00:48:38.659Z,6.97
2017-11-26T00:51:06.405Z,6.35
2017-11-26T00:53:34.151Z,6.55
2017-11-26T00:56:01.948Z,8.18
2017-11-26T00:58:29.694Z,8.48
2017-11-26T01:00:57.438Z,6.18
2017-11-26T01:03:25.235Z,9.18
2017-11-26T01:05:52.977Z,7.35
2017-11-26T01:08:20.723Z,7.55
2017-11-26T01:10:48.531Z,7.87
2017-11-26T01:13:16.288Z,5.93
2017-11-26T01:15:44.028Z,6.85
2017-11-26T01:18:11.828Z,7.00
2017-11-26T01:20:39.568Z,8.48
2017-11-26T01:23:07.308Z,8.55
2017-11-26T01:25:35.107Z,7.62
2017-11-26T01:28:02.882Z,9.40
2017-11-26T01:30:30.635Z,10.25
2017-11-26T01:32:58.440Z,9.25
2017-11-26T01:35:26.178Z,8.45
2017-11-26T01:37:54.678Z,7.50
2017-11-26T01:40:22.479Z,7.75
2017-11-26T01:42:50.247Z,10.20
2017-11-26T01:45:17.987Z,7.07
2017-11-26T01:47:45.843Z,9.23
2017-11-26T01:50:13.583Z,9.98
2017-11-26T01:52:41.323Z,10.70
2017-11-26T01:55:09.895Z,8.95
2017-11-26T01:57:37.647Z,8.40
2017-11-26T02:00:05.405Z,6.22
2017-11-26T02:02:33.218Z,6.22
2017-11-26T02:05:00.959Z,6.90
2017-11-26T02:07:29.486Z,7.87
2017-11-26T02:09:57.285Z,7.95
2017-11-26T02:12:25.031Z,6.15
2017-11-26T02:14:52.779Z,6.47
2017-11-26T02:17:20.581Z,6.10
2017-11-26T02:19:49.106Z,8.30
2017-11-26T02:22:16.917Z,5.80
2017-11-26T02:24:45.501Z,5.30
2017-11-26T02:27:14.027Z,6.07
2017-11-26T02:29:41.808Z,7.57
2017-11-26T02:32:21.412Z,7.20
2017-11-26T02:48:22.316Z,13.27
2017-11-26T02:50:50.081Z,7.72
2017-11-26T02:53:17.831Z,9.60
2017-11-26T02:55:45.649Z,6.78
2017-11-26T02:58:13.420Z,6.85
2017-11-26T03:00:41.188Z,9.05
2017-11-26T03:03:09.011Z,6.20
2017-11-26T03:05:36.770Z,10.35
2017-11-26T03:08:04.507Z,7.97
2017-11-26T03:10:32.315Z,6.45
2017-11-26T03:13:00.060Z,6.10
2017-11-26T03:15:27.808Z,10.85
2017-11-26T03:17:55.613Z,6.15
2017-11-26T03:20:23.368Z,7.10
2017-11-26T03:22:51.107Z,7.25
2017-11-26T03:25:18.925Z,6.05
2017-11-26T03:27:47.467Z,7.62
2017-11-26T03:30:15.230Z,8.50
2017-11-26T03:32:43.052Z,7.55
2017-11-26T03:35:10.807Z,8.80
2017-11-26T03:37:38.554Z,15.45
2017-11-26T03:40:06.388Z,9.93
2017-11-26T03:42:34.154Z,7.90
2017-11-26T03:45:01.916Z,7.30
2017-11-26T03:47:29.716Z,6.07
2017-11-26T03:49:57.457Z,7.78
2017-11-26T03:52:25.962Z,7.93
2017-11-26T03:54:53.785Z,8.95
2017-11-26T03:57:22.307Z,7.37
2017-11-26T03:59:50.053Z,5.75
2017-11-26T04:02:18.629Z,9.00
2017-11-26T04:04:47.144Z,4.68
2017-11-26T04:07:14.887Z,7.60
2017-11-26T04:09:42.703Z,10.25
2017-11-26T04:12:10.444Z,6.85
2017-11-26T04:14:38.189Z,6.32
2017-11-26T04:17:05.998Z,11.65
2017-11-26T04:19:33.752Z,6.53
2017-11-26T04:22:01.494Z,7.15
2017-11-26T04:24:29.325Z,6.47
2017-11-26T04:26:57.082Z,7.93
2017-11-26T04:29:24.824Z,6.12
2017-11-26T04:31:53.390Z,5.90
2017-11-26T04:34:21.128Z,8.27
2017-11-26T04:36:48.864Z,8.07
2017-11-26T04:39:16.667Z,7.30
2017-11-26T04:41:44.429Z,7.00
2017-11-26T04:44:12.177Z,9.48
2017-11-26T04:46:39.982Z,11.98
2017-11-26T04:49:07.720Z,6.35
2017-11-26T04:51:35.462Z,10.57
2017-11-26T04:54:03.259Z,9.15
2017-11-26T04:56:31.764Z,11.52
2017-11-26T04:58:59.520Z,8.93
2017-11-26T05:01:27.330Z,11.82
2017-11-26T05:03:55.086Z,8.55
2017-11-26T05:06:22.846Z,7.80
2017-11-26T05:08:50.664Z,11.07
2017-11-26T05:11:18.410Z,12.07
2017-11-26T05:13:46.924Z,10.75
2017-11-26T05:16:14.732Z,13.05
2017-11-26T05:18:42.481Z,12.55
2017-11-26T05:21:10.239Z,11.18
2017-11-26T05:23:38.041Z,10.10
2017-11-26T05:26:06.544Z,9.20
2017-11-26T05:28:34.287Z,7.50
2017-11-26T05:31:02.086Z,13.13
2017-11-26T05:33:29.844Z,8.20
2017-11-26T05:35:57.584Z,7.30
2017-11-26T05:38:25.382Z,9.93
2017-11-26T05:40:53.135Z,9.13
2017-11-26T05:43:20.870Z,9.60
2017-11-26T05:45:48.666Z,9.43
2017-11-26T05:48:16.429Z,9.13
2017-11-26T05:50:44.180Z,13.50
2017-11-26T05:53:11.971Z,9.00
2017-11-26T05:55:39.723Z,10.10
2017-11-26T05:58:08.239Z,12.70
2017-11-26T06:00:36.824Z,10.10
2017-11-26T06:03:04.575Z,8.52
2017-11-26T06:05:33.075Z,9.38
2017-11-26T06:08:01.085Z,12.00
2017-11-26T06:10:28.829Z,9.88
2017-11-26T06:12:56.592Z,13.15
2017-11-26T06:15:24.402Z,10.65
2017-11-26T06:17:52.930Z,11.55
2017-11-26T06:20:20.684Z,11.52
2017-11-26T06:22:48.488Z,11.48
2017-11-26T06:25:16.236Z,11.40
2017-11-26T06:27:44.008Z,9.35
2017-11-26T06:30:11.820Z,12.02
2017-11-26T06:32:39.570Z,14.95
2017-11-26T06:35:07.334Z,10.98
2017-11-26T06:37:35.146Z,10.77
2017-11-26T06:40:02.894Z,10.13
2017-11-26T06:42:31.420Z,15.25
2017-11-26T06:45:00.004Z,10.85
2017-11-26T06:47:28.512Z,13.85
2017-11-26T06:49:56.258Z,14.50
2017-11-26T06:52:24.064Z,9.73
2017-11-26T06:54:51.839Z,12.93
2017-11-26T06:57:19.600Z,10.00
2017-11-26T06:59:47.408Z,12.63
2017-11-26T07:02:15.171Z,11.60
2017-11-26T07:04:42.942Z,14.63
2017-11-26T07:07:10.760Z,16.25
2017-11-26T07:09:38.515Z,14.75
2017-11-26T07:12:06.276Z,13.18
2017-11-26T07:14:34.080Z,15.45
2017-11-26T07:17:01.823Z,15.55
2017-11-26T07:19:30.351Z,17.17
2017-11-26T07:21:58.175Z,14.68
2017-11-26T07:24:26.704Z,15.73
2017-11-26T07:26:54.446Z,17.90
2017-11-26T07:29:22.261Z,15.75
2017-11-26T07:31:50.781Z,16.15
2017-11-26T07:34:18.545Z,16.70
2017-11-26T07:36:46.353Z,14.38
2017-11-26T07:39:14.104Z,13.52
2017-11-26T07:41:41.864Z,13.98
2017-11-26T07:44:09.669Z,16.85
2017-11-26T07:46:38.190Z,13.55
2017-11-26T07:49:05.940Z,13.65
2017-11-26T07:51:33.746Z,16.87
2017-11-26T07:54:01.498Z,13.40
2017-11-26T07:56:29.251Z,12.68
2017-11-26T07:58:57.051Z,13.60
2017-11-26T08:01:25.570Z,16.00
2017-11-26T08:03:53.319Z,15.35
2017-11-26T08:06:21.125Z,12.23
2017-11-26T08:08:48.867Z,13.40
2017-11-26T08:11:17.381Z,11.35
2017-11-26T08:13:45.178Z,15.35
2017-11-26T08:16:12.931Z,12.05
2017-11-26T08:18:40.688Z,13.70
2017-11-26T08:21:09.257Z,13.00
2017-11-26T08:23:37.826Z,16.90
2017-11-26T08:26:05.612Z,16.55
2017-11-26T08:28:34.184Z,15.23
2017-11-26T08:31:02.698Z,16.40
2017-11-26T08:33:30.452Z,14.38
2017-11-26T08:35:58.303Z,15.82
2017-11-26T08:38:26.043Z,12.65
2017-11-26T08:40:54.572Z,13.65
2017-11-26T08:43:22.397Z,16.25
2017-11-26T08:45:50.945Z,18.37
2017-11-26T08:48:18.707Z,13.45
2017-11-26T08:50:46.552Z,15.15
2017-11-26T08:53:14.331Z,15.18
2017-11-26T08:55:42.107Z,17.67
2017-11-26T08:58:09.929Z,13.40
2017-11-26T09:00:37.693Z,23.33
2017-11-26T09:03:05.668Z,18.35
2017-11-26T09:05:33.500Z,21.55
2017-11-26T09:08:02.333Z,17.70
2017-11-26T09:10:30.099Z,14.57
2017-11-26T09:12:58.075Z,14.70
2017-11-26T09:15:25.850Z,13.45
2017-11-26T09:17:54.374Z,14.07
2017-11-26T09:20:22.191Z,11.95
2017-11-26T09:22:50.716Z,12.18
2017-11-26T09:25:18.464Z,14.93
2017-11-26T09:27:46.280Z,12.02
2017-11-26T09:30:14.038Z,13.52
2017-11-26T09:32:41.788Z,11.05
2017-11-26T09:35:09.591Z,14.55
2017-11-26T09:37:38.111Z,15.65
2017-11-26T09:40:05.897Z,15.55
2017-11-26T09:42:33.700Z,13.62
2017-11-26T09:45:01.496Z,15.88
2017-11-26T09:47:29.244Z,15.00
2017-11-26T09:49:57.050Z,18.62
2017-11-26T09:52:24.800Z,13.48
2017-11-26T09:54:52.540Z,17.90
2017-11-26T09:57:20.352Z,24.63
2017-11-26T09:59:48.884Z,16.58
2017-11-26T10:02:16.647Z,16.85
2017-11-26T10:04:44.452Z,13.57
2017-11-26T10:07:12.233Z,15.35
2017-11-26T10:09:40.745Z,15.85
2017-11-26T10:12:08.540Z,15.35
2017-11-26T10:14:36.283Z,17.17
2017-11-26T10:17:04.865Z,18.10
2017-11-26T10:19:32.672Z,15.93
2017-11-26T10:22:01.183Z,17.20
2017-11-26T10:24:28.923Z,14.98
2017-11-26T10:26:58.092Z,14.23
2017-11-26T10:29:25.838Z,14.25
2017-11-26T10:31:53.739Z,16.70
2017-11-26T10:34:22.312Z,17.73
2017-11-26T10:36:50.835Z,12.90
2017-11-26T10:39:18.580Z,13.15
2017-11-26T10:41:46.382Z,13.70
2017-11-26T10:44:14.140Z,16.67
2017-11-26T10:46:41.911Z,15.07
2017-11-26T10:49:09.742Z,13.62
2017-11-26T10:51:37.521Z,15.57
2017-11-26T10:54:06.046Z,12.32
2017-11-26T10:56:34.636Z,16.37
2017-11-26T10:59:02.423Z,14.75
2017-11-26T11:01:30.185Z,19.23
2017-11-26T11:03:58.199Z,18.42
2017-11-26T11:06:25.990Z,16.08
2017-11-26T11:08:54.553Z,11.27
2017-11-26T11:11:23.144Z,12.60
2017-11-26T11:13:51.696Z,12.27
2017-11-26T11:16:19.442Z,14.25
2017-11-26T11:18:47.280Z,16.48
2017-11-26T11:21:15.055Z,10.63
2017-11-26T11:23:42.883Z,10.98
2017-11-26T11:26:10.689Z,14.00
2017-11-26T11:28:38.438Z,12.98
2017-11-26T11:31:06.964Z,18.12
2017-11-26T11:33:35.559Z,13.40
2017-11-26T11:36:04.064Z,10.80
2017-11-26T11:38:31.815Z,10.30
2017-11-26T11:40:59.646Z,15.02
2017-11-26T11:43:27.395Z,11.32
2017-11-26T11:45:55.151Z,13.50
2017-11-26T11:48:23.024Z,10.40
2017-11-26T11:50:50.772Z,9.25
2017-11-26T11:53:19.323Z,11.65
2017-11-26T11:55:47.135Z,12.98
2017-11-26T11:58:14.943Z,11.52
2017-11-26T12:00:43.125Z,11.98
2017-11-26T12:03:11.139Z,13.52
2017-11-26T12:05:38.896Z,14.35
2017-11-26T12:08:06.672Z,11.20
2017-11-26T12:10:35.272Z,10.90
2017-11-26T12:13:03.104Z,8.77
2017-11-26T12:15:30.884Z,9.75
2017-11-26T12:17:59.465Z,10.20
2017-11-26T12:20:27.995Z,10.68
2017-11-26T12:22:55.773Z,10.00
2017-11-26T12:25:24.391Z,11.32
2017-11-26T12:27:52.919Z,10.05
2017-11-26T12:30:20.732Z,10.68
2017-11-26T12:32:49.320Z,25.20
2017-11-26T12:35:17.119Z,31.40
2017-11-26T12:37:44.886Z,13.55
2017-11-26T12:40:12.691Z,11.20
2017-11-26T12:42:41.215Z,22.87
2017-11-26T12:45:08.975Z,13.25
2017-11-26T12:47:36.972Z,8.98
2017-11-26T12:50:04.740Z,10.30
2017-11-26T12:52:32.519Z,7.90
2017-11-26T12:55:00.327Z,10.52
2017-11-26T12:57:28.090Z,9.18
2017-11-26T12:59:55.865Z,9.80
2017-11-26T13:02:23.686Z,11.77
2017-11-26T13:04:52.211Z,9.88
2017-11-26T13:07:19.980Z,11.25
2017-11-26T13:09:47.812Z,12.77
2017-11-26T13:12:15.587Z,12.52
2017-11-26T13:14:43.340Z,8.90
2017-11-26T13:17:11.181Z,10.18
2017-11-26T13:19:38.941Z,12.25
2017-11-26T13:22:07.460Z,8.63
2017-11-26T13:24:35.267Z,9.38
2017-11-26T13:27:03.796Z,10.52
2017-11-26T13:29:31.551Z,9.85
2017-11-26T13:31:59.367Z,10.43
2017-11-26T13:34:27.900Z,11.45
2017-11-26T13:36:55.660Z,9.80
2017-11-26T13:39:23.472Z,11.20
2017-11-26T13:41:52.007Z,11.30
2017-11-26T13:44:19.793Z,8.77
2017-11-26T13:46:47.600Z,8.63
2017-11-26T13:49:15.377Z,10.02
2017-11-26T13:51:43.157Z,17.75
2017-11-26T13:54:10.971Z,13.18
2017-11-26T13:56:39.531Z,10.80
2017-11-26T13:59:07.288Z,15.90
2017-11-26T14:01:35.107Z,9.20
2017-11-26T14:04:02.876Z,16.40
2017-11-26T14:06:30.643Z,10.95
2017-11-26T14:08:58.637Z,12.95
2017-11-26T14:11:27.221Z,12.27
2017-11-26T14:13:55.021Z,14.00
2017-11-26T14:16:22.844Z,11.00
2017-11-26T14:18:50.625Z,9.57
2017-11-26T14:21:18.380Z,12.25
2017-11-26T14:23:46.220Z,11.45
2017-11-26T14:26:14.050Z,12.85
2017-11-26T14:28:41.852Z,15.75
2017-11-26T14:31:09.716Z,9.75
2017-11-26T14:33:37.498Z,11.00
2017-11-26T14:36:05.258Z,13.05
2017-11-26T14:38:33.115Z,11.90
2017-11-26T14:41:00.882Z,12.40
2017-11-26T14:43:28.651Z,11.77
2017-11-26T14:45:56.477Z,11.63
2017-11-26T14:48:24.235Z,14.23
2017-11-26T14:50:51.998Z,13.40
2017-11-26T14:53:19.816Z,11.70
2017-11-26T14:55:48.347Z,13.98
2017-11-26T14:58:16.122Z,12.98
2017-11-26T15:00:43.958Z,15.20
2017-11-26T15:03:11.724Z,11.93
2017-11-26T15:05:39.482Z,13.98
2017-11-26T15:08:07.328Z,16.67
2017-11-26T15:10:35.089Z,20.90
2017-11-26T15:13:02.857Z,19.05
2017-11-26T15:15:30.679Z,18.37
2017-11-26T15:17:58.438Z,17.25
2017-11-26T15:20:26.230Z,16.77
2017-11-26T15:22:54.058Z,18.52
2017-11-26T15:25:21.815Z,21.05
2017-11-26T15:27:49.575Z,21.95
2017-11-26T15:30:17.465Z,19.80
2017-11-26T15:32:45.991Z,21.27
2017-11-26T15:35:13.755Z,17.55
2017-11-26T15:37:41.711Z,21.35
2017-11-26T15:40:09.475Z,19.73
2017-11-26T15:42:37.237Z,16.48
2017-11-26T15:45:05.076Z,15.02
2017-11-26T15:47:32.870Z,15.00
2017-11-26T15:50:05.360Z,17.23
2017-11-26T15:52:33.370Z,17.70
2017-11-26T15:55:01.171Z,18.92
2017-11-26T16:00:03.231Z,19.85
2017-11-26T16:02:31.097Z,17.45
2017-11-26T16:04:58.860Z,21.35
2017-11-26T16:07:26.640Z,19.35
2017-11-26T16:09:54.531Z,21.80
2017-11-26T16:12:22.293Z,23.23
2017-11-26T16:14:50.052Z,29.67
2017-11-26T16:17:17.979Z,31.45
2017-11-26T16:19:45.804Z,31.30
2017-11-26T16:22:14.336Z,32.03
2017-11-26T16:24:42.185Z,30.25
2017-11-26T16:27:09.996Z,31.65
2017-11-26T16:29:37.871Z,27.85
2017-11-26T16:32:06.472Z,30.00
2017-11-26T16:34:34.279Z,41.08
2017-11-26T16:37:02.071Z,46.22
2017-11-26T16:39:29.912Z,36.22
2017-11-26T16:41:57.795Z,45.25
2017-11-26T16:44:25.595Z,36.63
2017-11-26T16:46:53.438Z,43.63
2017-11-26T16:49:21.378Z,53.85
2017-11-26T16:51:50.044Z,44.40
2017-11-26T16:54:17.932Z,49.60
2017-11-26T16:56:45.934Z,52.30
2017-11-26T16:59:13.797Z,53.55
2017-11-26T17:01:41.644Z,49.42
2017-11-26T17:04:09.492Z,50.17
2017-11-26T17:06:37.292Z,37.38
2017-11-26T17:09:05.124Z,41.95
2017-11-26T17:11:32.929Z,40.05
2017-11-26T17:14:00.700Z,39.72
2017-11-26T17:16:28.553Z,47.28
2017-11-26T17:18:56.332Z,38.85
2017-11-26T17:21:24.196Z,37.60
2017-11-26T17:23:52.038Z,46.65
2017-11-26T17:26:19.954Z,38.83
2017-11-26T17:28:47.733Z,39.38
2017-11-26T17:31:16.387Z,34.90
2017-11-26T17:33:44.273Z,35.90
2017-11-26T17:36:12.821Z,44.45
2017-11-26T17:38:40.643Z,29.65
2017-11-26T17:41:08.424Z,37.78
2017-11-26T17:43:36.192Z,40.88
2017-11-26T17:46:04.128Z,31.33
2017-11-26T17:48:31.892Z,34.60
2017-11-26T17:50:59.643Z,37.70
2017-11-26T17:53:29.418Z,46.83
2017-11-26T17:55:57.998Z,38.58
2017-11-26T17:58:25.772Z,41.35
2017-11-26T18:00:53.601Z,28.27
2017-11-26T18:03:21.446Z,35.20
2017-11-26T18:05:49.275Z,42.25
2017-11-26T18:08:17.984Z,34.45
2017-11-26T18:10:45.929Z,44.55
2017-11-26T18:13:13.877Z,35.67
2017-11-26T18:15:42.557Z,34.35
2017-11-26T18:18:10.819Z,40.95
2017-11-26T18:20:38.744Z,45.25
2017-11-26T18:23:07.729Z,37.83
2017-11-26T18:25:36.607Z,45.72
2017-11-26T18:28:04.476Z,45.10
2017-11-26T18:30:32.288Z,40.47
2017-11-26T18:33:00.053Z,44.38
2017-11-26T18:35:27.813Z,39.05
2017-11-26T18:37:55.625Z,49.42
2017-11-26T18:40:23.376Z,57.05
2017-11-26T18:42:51.932Z,52.03
2017-11-26T18:45:19.761Z,50.75
2017-11-26T18:47:47.527Z,47.83
2017-11-26T18:50:15.275Z,48.75
2017-11-26T18:52:43.097Z,39.10
2017-11-26T18:55:10.874Z,35.40
2017-11-26T18:57:38.632Z,35.00
2017-11-26T19:00:06.451Z,39.15
2017-11-26T19:02:34.198Z,42.20
2017-11-26T19:05:01.951Z,35.47
2017-11-26T19:07:29.752Z,36.45
2017-11-26T19:09:57.504Z,35.90
2017-11-26T19:12:25.350Z,33.30
2017-11-26T19:14:53.188Z,35.65
2017-11-26T19:17:20.955Z,41.85
2017-11-26T19:19:48.767Z,37.63
2017-11-26T19:22:17.820Z,29.20
2017-11-26T19:24:45.584Z,33.08
2017-11-26T19:27:13.332Z,32.15
2017-11-26T19:29:41.148Z,36.45
2017-11-26T19:32:08.999Z,27.42
2017-11-26T19:34:36.756Z,24.65
2017-11-26T19:37:04.569Z,23.25
2017-11-26T19:39:32.343Z,26.30
2017-11-26T19:42:00.116Z,27.50
2017-11-26T19:44:27.920Z,28.95
2017-11-26T19:46:55.691Z,30.02
2017-11-26T19:49:23.456Z,32.00
2017-11-26T19:51:52.054Z,30.62
2017-11-26T19:54:19.818Z,36.38
2017-11-26T19:56:47.615Z,26.02
2017-11-26T19:59:17.101Z,26.45
2017-11-26T20:01:44.867Z,34.38
2017-11-26T20:04:12.634Z,34.63
2017-11-26T20:06:41.353Z,35.72
2017-11-26T20:09:09.182Z,32.75
2017-11-26T20:11:37.020Z,29.00
2017-11-26T20:14:04.824Z,33.22
2017-11-26T20:16:32.573Z,29.92
2017-11-26T20:19:01.094Z,34.65
2017-11-26T20:21:29.664Z,47.40
2017-11-26T20:23:57.416Z,60.35
2017-11-26T20:26:25.173Z,43.53
2017-11-26T20:28:53.003Z,40.20
2017-11-26T20:31:20.756Z,44.90
2017-11-26T20:33:48.516Z,37.47
2017-11-26T20:36:16.340Z,41.90
2017-11-26T20:38:44.093Z,45.08
2017-11-26T20:41:11.950Z,48.95
2017-11-26T20:43:39.882Z,43.53
2017-11-26T20:46:07.789Z,38.67
2017-11-26T20:48:35.535Z,43.58
2017-11-26T20:51:03.342Z,42.95
2017-11-26T20:53:31.100Z,39.30
2017-11-26T20:55:58.906Z,43.78
2017-11-26T20:58:26.747Z,38.78
2017-11-26T21:00:54.503Z,37.90
2017-11-26T21:03:22.284Z,37.30
2017-11-26T21:05:50.160Z,33.58
2017-11-26T21:08:17.970Z,30.80
2017-11-26T21:10:46.593Z,31.52
2017-11-26T21:13:14.403Z,29.37
2017-11-26T21:15:42.205Z,34.33
2017-11-26T21:18:09.975Z,27.90
2017-11-26T21:20:37.790Z,32.92
2017-11-26T21:23:05.557Z,29.52
2017-11-26T21:25:34.086Z,29.87
2017-11-26T21:28:01.892Z,29.20
2017-11-26T21:30:29.723Z,32.75
2017-11-26T21:32:57.536Z,31.80
2017-11-26T21:35:26.191Z,29.63
2017-11-26T21:37:53.956Z,36.92
2017-11-26T21:40:21.720Z,27.42
2017-11-26T21:42:50.311Z,30.35
2017-11-26T21:45:18.818Z,32.25
2017-11-26T21:47:46.684Z,25.73
2017-11-26T21:50:14.615Z,33.03
2017-11-26T21:52:42.383Z,30.35
2017-11-26T21:55:10.905Z,28.92
2017-11-26T21:57:38.714Z,28.73
2017-11-26T22:00:06.534Z,28.40
2017-11-26T22:02:34.282Z,34.47
2017-11-26T22:05:02.103Z,32.05
2017-11-26T22:07:29.856Z,35.30
2017-11-26T22:09:57.606Z,26.98
2017-11-26T22:12:25.425Z,28.05
2017-11-26T22:14:53.171Z,24.85
2017-11-26T22:17:21.683Z,25.23
2017-11-26T22:19:49.488Z,25.48
2017-11-26T22:22:17.240Z,28.98
2017-11-26T22:24:44.999Z,20.27
2017-11-26T22:27:12.828Z,26.30
2017-11-26T22:29:40.576Z,30.05
2017-11-26T22:32:08.328Z,26.27
2017-11-26T22:34:36.145Z,24.05
2017-11-26T22:37:03.888Z,26.20
2017-11-26T22:39:31.636Z,25.70
2017-11-26T22:41:59.589Z,23.02
2017-11-26T22:44:27.454Z,21.20
2017-11-26T22:46:55.209Z,27.08
2017-11-26T22:49:23.112Z,25.08
2017-11-26T22:51:50.877Z,21.73
2017-11-26T22:54:18.625Z,20.00
2017-11-26T22:56:46.432Z,23.05
2017-11-26T22:59:14.957Z,28.92
2017-11-26T23:01:42.779Z,23.80
2017-11-26T23:04:11.384Z,28.50
2017-11-26T23:06:39.170Z,17.27
2017-11-26T23:09:06.920Z,22.95
2017-11-26T23:11:34.740Z,19.67
2017-11-26T23:14:02.497Z,27.02
2017-11-26T23:16:31.021Z,22.77
2017-11-26T23:18:58.823Z,27.87
2017-11-26T23:21:26.587Z,23.55
2017-11-26T23:23:54.336Z,33.72
2017-11-26T23:26:22.138Z,39.75
2017-11-26T23:28:50.649Z,31.60
2017-11-26T23:31:18.395Z,48.42
2017-11-26T23:33:46.219Z,65.47
2017-11-26T23:36:13.972Z,49.15
2017-11-26T23:38:41.733Z,42.90
2017-11-26T23:41:09.536Z,38.85
2017-11-26T23:43:38.052Z,39.05
2017-11-26T23:46:05.838Z,32.28
2017-11-26T23:48:33.660Z,30.70
2017-11-26T23:51:01.406Z,32.00
2017-11-26T23:53:29.933Z,26.45
2017-11-26T23:55:57.736Z,26.75
2017-11-26T23:58:25.494Z,25.27
